Tiempo atmosférico en la estación meteorológica de Jaca, Huesca (830 m.)



Fecha
DESCASC
Temp. máxima en grados centígrados (hora)
DESCASC
Temp. mínima en grados centígrados (hora)
DESCASC
Temp. media en grados centígrados
DESCASC
Racha de viento máxima en m/sg (hora)
DESCASC
Velocidad máxima media en intervalos de 10 minutos(hora)
DESCASC
Precipitaciones diarias en mm
DESCASC
Precipitaciones de 00:00 a 06:00 en mm
DESCASC
Precipitaciones de 06:00 a 12:00 en mm
DESCASC
Precipitaciones de 12:00 a 18:00 en mm
DESCASC
Precipitaciones de 18:00 a 24:00 en mm
DESCASC
17-10-2019 18.2 (16:50) 7.2 (04:50) 12.7 -- (--) -- (--) 1 0 1 0 0
16-10-2019 18.9 (16:30) 5.7 (03:40) 12.3 -- (--) -- (--) 0 0 0 0 0
15-10-2019 14 (16:20) 4.8 (07:00) 9.4 -- (--) -- (--) 2.7 2.7 0 0 0
14-10-2019 18.1 (10:30) 8.9 (23:59) 13.5 -- (--) -- (--) 23.1 0 1 7.5 14.6
13-10-2019 24.7 (16:10) 15.1 (00:00) 19.9 11.39 (22:20) 4.44 (22:30) 0 0 0 0 0
12-10-2019 24.8 (15:00) 16.8 (00:00) 20.8 13.89 (11:50) 4.44 (18:10) 0 0 0 0 0
11-10-2019 27.2 (14:30) 7.9 (00:00) 17.6 6.67 (06:10) 3.61 (03:10) 0 0 0 0 0
10-10-2019 21.9 (16:30) 3.6 (00:00) 12.7 6.39 (21:00) 3.33 (21:30) 0 0 0 0 0
09-10-2019 22.1 (15:30) 7.6 (00:00) 14.9 9.17 (17:30) 3.33 (19:20) 0 0 0 0 0
08-10-2019 27.4 (16:30) 9.9 (00:00) 18.6 6.11 (15:20) 3.06 (21:40) 0 0 0 0 0
07-10-2019 25.2 (15:50) 7.8 (00:00) 16.5 14.17 (18:00) 8.33 (17:10) 0 0 0 0 0
06-10-2019 21.5 (16:10) 5.5 (00:00) 13.5 10.56 (16:50) 5 (22:20) 0 0 0 0 0
05-10-2019 25.1 (16:30) 5.7 (00:00) 15.4 7.5 (18:20) 3.33 (18:20) 0 0 0 0 0
04-10-2019 24.6 (14:50) 5.3 (00:00) 15 10 (15:10) 4.17 (15:30) 0 0 0 0 0
03-10-2019 23.8 (16:20) 4.6 (00:00) 14.2 10.83 (16:30) 3.89 (17:00) 0 0 0 0 0
02-10-2019 19.7 (16:30) 9.5 (00:00) 14.6 13.06 (04:30) 6.39 (04:40) 0 0 0 0 0
01-10-2019 26.6 (15:20) 12.1 (00:00) 19.4 10.56 (18:40) 5.83 (19:00) 0 0 0 0 0
30-09-2019 29 (16:10) 9.8 (00:00) 19.4 7.78 (20:50) 4.17 (21:10) 0 0 0 0 0
29-09-2019 28.1 (14:50) 10.2 (00:00) 19.2 8.06 (06:20) 5 (22:30) 0 0 0 0 0
28-09-2019 26.9 (15:50) 7.9 (00:00) 17.4 6.39 (21:10) 3.33 (23:30) 0 0 0 0 0
27-09-2019 25.8 (16:10) 10.9 (00:00) 18.3 7.5 (22:10) 4.17 (21:40) 0 0 0 0 0
26-09-2019 26 (15:40) 9.2 (00:00) 17.6 7.22 (23:00) 4.17 (22:10) 0 0 0 0 0
25-09-2019 21.1 (15:50) 9.4 (00:00) 15.3 10.56 (16:40) 4.17 (17:30) 0 0 0 0 0
24-09-2019 24.9 (15:00) 10.4 (00:00) 17.6 7.5 (13:30) 3.61 (14:10) 0 0 0 0 0
23-09-2019 21.5 (16:20) 6 (00:00) 13.8 8.33 (17:20) 2.78 (06:10) 0 0 0 0 0
22-09-2019 19.5 (16:40) 9.1 (00:00) 14.3 6.94 (17:30) 3.61 (17:10) 9.6 7.9 1.2 0.5 0
21-09-2019 24.5 (16:00) 14.1 (00:00) 19.3 8.33 (00:10) 3.89 (22:30) 5 2.1 0.8 0 2.1
20-09-2019 25.3 (16:00) 13 (00:00) 19.1 9.72 (12:30) 3.89 (13:30) 0 0 0 0 0

Gráficas

Temp. máximas Temp. mínimas Temp. medias Precipitaciones Rachas de viento máximas Velocidades máximas media en intervalos de 10 minutos

Datos horarios

Fecha y hora oficial Temperatura (ºC) Velocidad del viento (km/h) Dirección del viento Racha (km/h) Dirección de racha Precipitación (mm) Presión (hPa) Tendencia (hPa) Humedad (%)
2019-10-19 23:00:00 13.5 -- -- -- -- 0.5 -- -- 67
2019-10-19 22:00:00 15.1 -- -- -- -- 0 -- -- 52
2019-10-19 21:00:00 15.5 -- -- -- -- 0 -- -- 48
2019-10-19 20:00:00 15 -- -- -- -- 0 -- -- 48
2019-10-19 19:00:00 15.5 -- -- -- -- 0 -- -- 46
2019-10-19 18:00:00 15.9 -- -- -- -- 0.2 -- -- 44
2019-10-19 17:00:00 16.4 -- -- -- -- 0 -- -- 44
2019-10-19 16:00:00 15.6 -- -- -- -- 0 -- -- 47
2019-10-19 15:00:00 14.8 -- -- -- -- 0 -- -- 48
2019-10-19 14:00:00 14.3 -- -- -- -- 0 -- -- 49
2019-10-19 13:00:00 14.2 -- -- -- -- 0 -- -- 49
2019-10-19 12:00:00 13.9 -- -- -- -- 0 -- -- 55
2019-10-19 11:00:00 14 -- -- -- -- 0 -- -- 55
2019-10-19 10:00:00 13.5 -- -- -- -- 0 -- -- 61
2019-10-19 09:00:00 12.9 -- -- -- -- 0 -- -- 65
2019-10-19 08:00:00 12.8 -- -- -- -- 0.1 -- -- 75
2019-10-19 07:00:00 12.7 -- -- -- -- 0 -- -- 76
2019-10-19 06:00:00 12.9 -- -- -- -- 0 -- -- 73
2019-10-19 05:00:00 13.3 -- -- -- -- 0 -- -- 70
2019-10-19 04:00:00 14 -- -- -- -- 0 -- -- 65
2019-10-19 03:00:00 14 -- -- -- -- 0 -- -- 67
2019-10-19 02:00:00 14 -- -- -- -- 0 -- -- 65
2019-10-19 01:00:00 13.5 -- -- -- -- 0 -- -- 70
2019-10-19 00:00:00 13.4 -- -- -- -- 0 -- -- 73
2019-10-18 23:00:00 13.3 -- -- -- -- 0 -- -- 73
2019-10-18 22:00:00 13.3 -- -- -- -- 0 -- -- 72
2019-10-18 21:00:00 13.6 -- -- -- -- 0 -- -- 71
2019-10-18 20:00:00 14.9 -- -- -- -- 0 -- -- 65
2019-10-18 19:00:00 15.5 -- -- -- -- 0 -- -- 63
2019-10-18 18:00:00 16.3 -- -- -- -- 0 -- -- 58
2019-10-18 17:00:00 17.3 -- -- -- -- 0 -- -- 52
2019-10-18 16:00:00 17.6 -- -- -- -- 0 -- -- 49
2019-10-18 15:00:00 17.6 -- -- -- -- 0 -- -- 52
2019-10-18 14:00:00 17.5 -- -- -- -- 0 -- -- 53
2019-10-18 13:00:00 16.4 -- -- -- -- 0 -- -- 64
2019-10-18 12:00:00 13.6 -- -- -- -- 0 -- -- 82
2019-10-18 11:00:00 11.9 -- -- -- -- 0 -- -- 88
2019-10-18 10:00:00 11.4 -- -- -- -- 2.4 -- -- 88
2019-10-18 09:00:00 10.9 -- -- -- -- 0.1 -- -- 88
2019-10-18 08:00:00 11 -- -- -- -- 1.3 -- -- 88
2019-10-18 07:00:00 10.9 -- -- -- -- 0 -- -- 87
2019-10-18 06:00:00 10.4 -- -- -- -- 0.4 -- -- 87
2019-10-18 05:00:00 10.6 -- -- -- -- 3.8 -- -- 87
2019-10-18 04:00:00 10.4 -- -- -- -- 2.1 -- -- 81
2019-10-18 03:00:00 10.6 -- -- -- -- 0 -- -- 73
2019-10-18 02:00:00 10.5 -- -- -- -- 0 -- -- 73
2019-10-18 01:00:00 10.2 -- -- -- -- 0 -- -- 73
2019-10-18 00:00:00 10.2 -- -- -- -- 0 -- -- 73
2019-10-17 23:00:00 10.2 -- -- -- -- 0 -- -- 73
2019-10-17 22:00:00 11.1 -- -- -- -- 0 -- -- 70
2019-10-17 21:00:00 12.2 -- -- -- -- 0 -- -- 65
2019-10-17 20:00:00 13.4 -- -- -- -- 0 -- -- 56
2019-10-17 19:00:00 15.2 -- -- -- -- 0 -- -- 47
2019-10-17 18:00:00 16.4 -- -- -- -- 0 -- -- 42
2019-10-17 17:00:00 17.1 -- -- -- -- 0 -- -- 40
2019-10-17 16:00:00 16.8 -- -- -- -- 0 -- -- 40
2019-10-17 15:00:00 16.3 -- -- -- -- 0 -- -- 40
2019-10-17 14:00:00 15.6 -- -- -- -- 0 -- -- 46
2019-10-17 13:00:00 14.6 -- -- -- -- 0 -- -- 48
2019-10-17 12:00:00 13.1 -- -- -- -- 0 -- -- 61
2019-10-17 11:00:00 10.4 -- -- -- -- 0.1 -- -- 77
2019-10-17 10:00:00 8.7 -- -- -- -- 0.7 -- -- 83
2019-10-17 09:00:00 8.9 0 Calma -- -- 0.2 -- -- 70
2019-10-17 08:00:00 9.1 0 Calma -- -- 0 -- -- 63
2019-10-17 07:00:00 8 0 Calma 0 Calma 0 -- -- 68
2019-10-17 06:00:00 8.1 0 Calma 0 Calma 0 -- -- 65
2019-10-17 05:00:00 7.4 0 Calma -- -- 0 -- -- 68
2019-10-17 04:00:00 7.9 0 Calma -- -- 0 -- -- 65
2019-10-17 03:00:00 8.5 0 Calma -- -- 0 -- -- 65
2019-10-17 02:00:00 9.1 0 Calma -- -- 0 -- -- 63
2019-10-17 01:00:00 9.6 0 Calma 0 Calma 0 -- -- 62
2019-10-17 00:00:00 10.3 0 Calma -- -- 0 -- -- 60
2019-10-16 23:00:00 10.5 0 Calma -- -- 0 -- -- 58
2019-10-16 22:00:00 10.7 0 Calma -- -- 0 -- -- 57
2019-10-16 21:00:00 11.7 0 Calma -- -- 0 -- -- 48
2019-10-16 20:00:00 13.5 0 Calma -- -- 0 -- -- 40
2019-10-16 19:00:00 15.1 0 Calma -- -- 0 -- -- 37
2019-10-16 18:00:00 16.9 0 Calma -- -- 0 -- -- 34
2019-10-16 17:00:00 17.5 0 Calma -- -- 0 -- -- 34
2019-10-16 16:00:00 17.4 0 Calma -- -- 0 -- -- 34
2019-10-16 15:00:00 17.5 0 Calma -- -- 0 -- -- 34
2019-10-16 14:00:00 17.2 0 Calma -- -- 0 -- -- 34
2019-10-16 13:00:00 16.4 0 Calma -- -- 0 -- -- 37
2019-10-16 12:00:00 14.2 0 Calma -- -- 0 -- -- 40
2019-10-16 11:00:00 11.3 0 Calma -- -- 0 -- -- 55
2019-10-16 10:00:00 8.7 0 Calma 0 Calma 0 -- -- 70
2019-10-16 09:00:00 7.1 0 Calma 0 Calma 0 -- -- 72
2019-10-16 08:00:00 7.3 0 Calma -- -- 0 -- -- 70
2019-10-16 07:00:00 7.4 0 Calma 0 Calma 0 -- -- 72
2019-10-16 06:00:00 6.9 0 Calma 0 Calma 0 -- -- 73
2019-10-16 05:00:00 6.8 0 Calma 0 Calma 0 -- -- 74
2019-10-16 04:00:00 6 0 Calma -- -- 0 -- -- 77
2019-10-16 03:00:00 6 0 Calma 0 Calma 0 -- -- 76
2019-10-16 02:00:00 6 0 Calma 0 Calma 0 -- -- 76
2019-10-16 01:00:00 6.4 0 Calma -- -- 0 -- -- 75
2019-10-16 00:00:00 6.3 0 Calma -- -- 0 -- -- 76
2019-10-15 23:00:00 6.6 0 Calma -- -- 0 -- -- 73
2019-10-15 22:00:00 6.9 0 Calma -- -- 0 -- -- 75
2019-10-15 21:00:00 7.1 0 Calma -- -- 0 -- -- 71
2019-10-15 20:00:00 8.7 0 Calma -- -- 0 -- -- 58
2019-10-15 19:00:00 10.4 0 Calma -- -- 0 -- -- 49
2019-10-15 18:00:00 12 0 Calma -- -- 0 -- -- 46
2019-10-15 17:00:00 12 0 Calma -- -- 0 -- -- 44
2019-10-15 16:00:00 13.6 0 Calma -- -- 0 -- -- 41
2019-10-15 15:00:00 13.4 0 Calma -- -- 0 -- -- 47
2019-10-15 14:00:00 12.5 0 Calma -- -- 0 -- -- 51
2019-10-15 13:00:00 11.7 0 Calma -- -- 0 -- -- 55
2019-10-15 12:00:00 10.1 0 Calma -- -- 0 -- -- 68
2019-10-15 11:00:00 8.4 0 Calma -- -- 0 -- -- 87
2019-10-15 10:00:00 6.8 0 Calma -- -- 0 -- -- 91
2019-10-15 09:00:00 5.7 0 Calma -- -- 0 -- -- 91
2019-10-15 08:00:00 5 0 Calma -- -- 0 -- -- 90
2019-10-15 07:00:00 4.9 0 Calma -- -- 0 -- -- 88
2019-10-15 06:00:00 5.4 0 Calma -- -- 0.1 -- -- 87
2019-10-15 05:00:00 6.2 0 Calma 0 Calma 0.9 -- -- 89
2019-10-15 04:00:00 7.3 0 Calma -- -- 0 -- -- 88
2019-10-15 03:00:00 7 0 Calma -- -- 0 -- -- 88
2019-10-15 02:00:00 8.1 0 Calma -- -- 0.8 -- -- 88
2019-10-15 01:00:00 8.7 0 Calma -- -- 0.9 -- -- 88
2019-10-15 00:00:00 8.9 0 Calma -- -- 0.6 -- -- 88
2019-10-14 23:00:00 9.3 0 Calma -- -- 0.9 -- -- 88
2019-10-14 22:00:00 9.3 0 Calma -- -- 0.3 -- -- 87
2019-10-14 21:00:00 11.4 0 Calma -- -- 0 -- -- 88
2019-10-14 20:00:00 11.4 0 Calma -- -- 0 -- -- 87
2019-10-14 19:00:00 11.1 0 Calma -- -- 12.8 -- -- 88
2019-10-14 18:00:00 13.1 13 Norte 34 Sudeste 2.3 -- -- 87
2019-10-14 17:00:00 15.3 15 Sudeste 40 Sudeste 0.4 -- -- 72
2019-10-14 16:00:00 17 9 Sudeste 29 Sudeste 0 -- -- 59
2019-10-14 15:00:00 17 11 Sudeste 48 Sudeste 0 -- -- 65
2019-10-14 14:00:00 14.4 13 Sudeste 32 Sudeste 3.1 -- -- 78
2019-10-14 13:00:00 15 11 Sudoeste 36 Sudoeste 1.7 -- -- 72
2019-10-14 12:00:00 15.8 6 Sudeste 30 Sudeste 0.7 -- -- 68
2019-10-14 11:00:00 16.6 10 Sudeste 34 Sudeste 0.3 -- -- 59
2019-10-14 10:00:00 17.1 9 Sudeste 25 Sudeste 0 -- -- 55
2019-10-14 09:00:00 16.3 8 Sudeste 26 Sudeste 0 -- -- 59
2019-10-14 08:00:00 15.7 8 Sudeste 20 Sudeste 0 -- -- 59
2019-10-14 07:00:00 15 6 Este 17 Este 0 -- -- 61
2019-10-14 06:00:00 14.7 4 Este 23 Sudeste 0 -- -- 63
2019-10-14 05:00:00 15.7 10 Sudeste 24 Sudeste 0 -- -- 63
2019-10-14 04:00:00 15.6 11 Sudeste 27 Sudeste 0 -- -- 63
2019-10-14 03:00:00 16.4 8 Este 25 Sudeste 0 -- -- 61
2019-10-14 02:00:00 16.8 8 Sudeste 26 Sudeste 0 -- -- 59
2019-10-14 01:00:00 17.6 10 Sudeste 30 Sudeste 0 -- -- 57
2019-10-14 00:00:00 17.6 13 Sudeste 35 Sudeste 0 -- -- 61
2019-10-13 23:00:00 18.6 11 Sudeste 41 Sudeste 0 -- -- 55
2019-10-13 22:00:00 19.3 10 Sudeste 27 Este 0 -- -- 51
2019-10-13 21:00:00 19.7 10 Este 22 Sudeste 0 -- -- 46
2019-10-13 20:00:00 20.6 7 Sudeste 27 Sudeste 0 -- -- 42
2019-10-13 19:00:00 22.4 9 Sudeste 27 Sudeste 0 -- -- 38
2019-10-13 18:00:00 23 7 Sudeste 22 Sudeste 0 -- -- 37
2019-10-13 17:00:00 23.3 8 Sur 24 Sur 0 -- -- 37
2019-10-13 16:00:00 24.6 8 Sudeste 33 Sudeste 0 -- -- 37
2019-10-13 15:00:00 23.8 10 Sudeste 31 Sudeste 0 -- -- 38
2019-10-13 14:00:00 22.3 13 Sudeste 32 Sudeste 0 -- -- 42
2019-10-13 13:00:00 22.5 12 Sudeste 31 Sur 0 -- -- 46
2019-10-13 12:00:00 20.6 13 Sudeste 32 Sudeste 0 -- -- 49
2019-10-13 11:00:00 19.3 13 Sudeste 34 Sudeste 0 -- -- 52
2019-10-13 10:00:00 17.4 11 Sudeste 28 Sudeste 0 -- -- 57
2019-10-13 09:00:00 15.8 10 Sudeste 25 Este 0 -- -- 62
2019-10-13 08:00:00 15.4 13 Sudeste 28 Sudeste 0 -- -- 63
2019-10-13 07:00:00 15.1 9 Sudeste 27 Sudeste 0 -- -- 63
2019-10-13 06:00:00 15.3 5 Sudeste 28 Sudeste 0 -- -- 62
2019-10-13 05:00:00 16 12 Sudeste 28 Sudeste 0 -- -- 59
2019-10-13 04:00:00 16.7 9 Sudeste 24 Sudeste 0 -- -- 57
2019-10-13 03:00:00 17.2 8 Sudeste 23 Sudeste 0 -- -- 58
2019-10-13 02:00:00 17.5 9 Sudeste 29 Este 0 -- -- 57
2019-10-13 01:00:00 18.4 8 Sudeste 22 Sudeste 0 -- -- 55
2019-10-13 00:00:00 18.4 10 Sudeste 21 Sudeste 0 -- -- 55
2019-10-12 23:00:00 19.1 9 Sudeste 24 Sudeste 0 -- -- 53
2019-10-12 22:00:00 19.3 5 Este 20 Este 0 -- -- 51
2019-10-12 21:00:00 20.2 8 Este 24 Sudeste 0 -- -- 47
2019-10-12 20:00:00 20.7 9 Este 36 Este 0 -- -- 44
2019-10-12 19:00:00 21.2 12 Sudeste 35 Sudeste 0 -- -- 43
2019-10-12 18:00:00 22.5 12 Sudeste 35 Sudeste 0 -- -- 40
2019-10-12 17:00:00 23.4 13 Sudeste 34 Este 0 -- -- 40
2019-10-12 16:00:00 23.2 10 Sudeste 30 Sudeste 0 -- -- 38
2019-10-12 15:00:00 24.1 13 Sudeste 37 Sudeste 0 -- -- 40
2019-10-12 14:00:00 22.1 12 Sudeste 32 Sudeste 0 -- -- 42
2019-10-12 13:00:00 22.6 12 Sur 28 Sur 0 -- -- 44
2019-10-12 12:00:00 21.5 10 Sudeste 50 Sudeste 0 -- -- 47
2019-10-12 11:00:00 19.6 13 Sudeste 31 Sur 0 -- -- 53
2019-10-12 10:00:00 18.1 9 Sudeste 23 Sur 0 -- -- 58
2019-10-12 09:00:00 17.1 9 Sudeste 21 Sudeste 0 -- -- 62
2019-10-12 08:00:00 17 7 Sudeste 21 Sudeste 0 -- -- 62
2019-10-12 07:00:00 17.4 12 Sudeste 27 Este 0 -- -- 61
2019-10-12 06:00:00 17.6 4 Sudeste 20 Sudeste 0 -- -- 59
2019-10-12 05:00:00 17.4 5 Este 18 Sudeste 0 -- -- 59
2019-10-12 04:00:00 18 8 Sudeste 18 Sudeste 0 -- -- 57
2019-10-12 03:00:00 18.3 6 Sudeste 22 Sudeste 0 -- -- 57
2019-10-12 02:00:00 18.1 6 Sudeste 17 Sudeste 0 -- -- 55
2019-10-12 01:00:00 17.8 6 Este 16 Este 0 -- -- 52
2019-10-12 00:00:00 18.5 6 Este 17 Este 0 -- -- 47
2019-10-11 23:00:00 19.2 6 Este 16 Sudeste 0 -- -- 44
2019-10-11 22:00:00 17.8 4 Nordeste 10 Este 0 -- -- 43
2019-10-11 21:00:00 18.7 4 Nordeste 17 Nordeste 0 -- -- 41
2019-10-11 20:00:00 19.6 5 Nordeste 16 Norte 0 -- -- 37
2019-10-11 19:00:00 22.5 0 Calma 8 Sudoeste 0 -- -- 33
2019-10-11 18:00:00 24.5 2 Oeste 13 Noroeste 0 -- -- 30
2019-10-11 17:00:00 25.8 0 Calma 17 Sudoeste 0 -- -- 29
2019-10-11 16:00:00 25.9 5 Noroeste 17 Oeste 0 -- -- 28
2019-10-11 15:00:00 26.8 2 Sur 12 Sudeste 0 -- -- 29
2019-10-11 14:00:00 25.4 5 Sur 14 Sudoeste 0 -- -- 31
2019-10-11 13:00:00 24.6 3 Sudeste 14 Sur 0 -- -- 31
2019-10-11 12:00:00 22.3 5 Sudeste 17 Sudeste 0 -- -- 31
2019-10-11 11:00:00 17.5 5 Sur 10 Sur 0 -- -- 38
2019-10-11 10:00:00 11.8 2 Nordeste 10 Nordeste 0 -- -- 47
2019-10-11 09:00:00 8.9 4 Nordeste 12 Norte 0 -- -- 51
2019-10-11 08:00:00 9.5 6 Nordeste 22 Nordeste 0 -- -- 51
2019-10-11 07:00:00 8.1 5 Nordeste 24 Nordeste 0 -- -- 53
2019-10-11 06:00:00 9.2 6 Nordeste 21 Este 0 -- -- 51
2019-10-11 05:00:00 9.7 10 Nordeste 23 Nordeste 0 -- -- 49
2019-10-11 04:00:00 9.5 8 Nordeste 23 Nordeste 0 -- -- 49
2019-10-11 03:00:00 9.2 10 Nordeste 23 Nordeste 0 -- -- 51
2019-10-11 02:00:00 9.1 5 Nordeste 22 Nordeste 0 -- -- 49
2019-10-11 01:00:00 9.7 12 Nordeste 23 Nordeste 0 -- -- 48
2019-10-11 00:00:00 10.2 9 Nordeste 22 Nordeste 0 -- -- 46
2019-10-10 23:00:00 10.5 5 Este 22 Nordeste 0 -- -- 44
2019-10-10 22:00:00 11.5 3 Nordeste 21 Nordeste 0 -- -- 42
2019-10-10 21:00:00 12.5 11 Nordeste 23 Nordeste 0 -- -- 38
2019-10-10 20:00:00 14.7 2 Nordeste 6 Nordeste 0 -- -- 33
2019-10-10 19:00:00 18.4 4 Oeste 13 Noroeste 0 -- -- 28
2019-10-10 18:00:00 19.7 6 Noroeste 16 Noroeste 0 -- -- 26
2019-10-10 17:00:00 20.8 5 Oeste 18 Noroeste 0 -- -- 25
2019-10-10 16:00:00 21.1 5 Noroeste 18 Noroeste 0 -- -- 25
2019-10-10 15:00:00 20.1 6 Noroeste 18 Noroeste 0 -- -- 31
2019-10-10 14:00:00 19.1 4 Noroeste 14 Noroeste 0 -- -- 34
2019-10-10 13:00:00 17.6 0 Calma 9 Oeste 0 -- -- 39
2019-10-10 12:00:00 13.8 3 Noroeste 8 Noroeste 0 -- -- 49
2019-10-10 11:00:00 11.5 3 Sur 9 Nordeste 0 -- -- 67
2019-10-10 10:00:00 6.1 2 Nordeste 8 Este 0 -- -- 89
2019-10-10 09:00:00 3.9 3 Nordeste 9 Nordeste 0 -- -- 89
2019-10-10 08:00:00 4.1 0 Calma 15 Nordeste 0 -- -- 89
2019-10-10 07:00:00 4.4 0 Calma 14 Nordeste 0 -- -- 88
2019-10-10 06:00:00 4.2 2 Nordeste 10 Nordeste 0 -- -- 88
2019-10-10 05:00:00 5.1 5 Nordeste 15 Nordeste 0 -- -- 87
2019-10-10 04:00:00 5.1 3 Nordeste 15 Nordeste 0 -- -- 85
2019-10-10 03:00:00 6 5 Nordeste 15 Nordeste 0 -- -- 85
2019-10-10 02:00:00 6.5 2 Nordeste 10 Nordeste 0 -- -- 80
2019-10-10 01:00:00 7.4 0 Calma 6 Oeste 0 -- -- 76
2019-10-10 00:00:00 7.6 2 Norte 12 Noroeste 0 -- -- 73
2019-10-09 23:00:00 8.9 8 Oeste 15 Noroeste 0 -- -- 68
2019-10-09 22:00:00 9.7 8 Oeste 19 Oeste 0 -- -- 65
2019-10-09 21:00:00 10.8 6 Oeste 21 Noroeste 0 -- -- 59
2019-10-09 20:00:00 12.4 10 Noroeste 26 Noroeste 0 -- -- 53
2019-10-09 19:00:00 15.5 10 Noroeste 26 Noroeste 0 -- -- 42
2019-10-09 18:00:00 17.8 8 Noroeste 33 Noroeste 0 -- -- 38
2019-10-09 17:00:00 20.2 8 Oeste 28 Noroeste 0 -- -- 36
2019-10-09 16:00:00 21.1 10 Noroeste 28 Noroeste 0 -- -- 36
2019-10-09 15:00:00 20.9 9 Noroeste 25 Noroeste 0 -- -- 39
2019-10-09 14:00:00 20.4 8 Noroeste 25 Noroeste 0 -- -- 44
2019-10-09 13:00:00 19.1 6 Noroeste 17 Noroeste 0 -- -- 49
2019-10-09 12:00:00 17.7 6 Oeste 16 Oeste 0 -- -- 57
2019-10-09 11:00:00 13.9 5 Noroeste 17 Sudoeste 0 -- -- 70
2019-10-09 10:00:00 11.7 0 Calma 7 Noroeste 0 -- -- 82
2019-10-09 09:00:00 10.3 0 Calma 13 Oeste 0 -- -- 85
2019-10-09 08:00:00 9.7 4 Noroeste 19 Noroeste 0 -- -- 79
2019-10-09 07:00:00 10.6 6 Norte 22 Nordeste 0 -- -- 73
2019-10-09 06:00:00 11.2 6 Nordeste 17 Nordeste 0 -- -- 72
2019-10-09 05:00:00 11.4 8 Nordeste 16 Nordeste 0 -- -- 72
2019-10-09 04:00:00 11.1 5 Nordeste 18 Nordeste 0 -- -- 72
2019-10-09 03:00:00 12 8 Nordeste 19 Nordeste 0 -- -- 70
2019-10-09 02:00:00 12.1 0 Calma 14 Este 0 -- -- 68
2019-10-09 01:00:00 12.2 8 Nordeste 14 Nordeste 0 -- -- 67
2019-10-09 00:00:00 13.2 2 Nordeste 10 Norte 0 -- -- 61
2019-10-08 23:00:00 14.5 2 Norte 9 Norte 0 -- -- 55
2019-10-08 22:00:00 16.5 3 Norte 18 Norte 0 -- -- 51
2019-10-08 21:00:00 18 6 Nordeste 14 Nordeste 0 -- -- 42
2019-10-08 20:00:00 21.3 5 Oeste 13 Noroeste 0 -- -- 33
2019-10-08 19:00:00 23.3 4 Oeste 18 Noroeste 0 -- -- 31
2019-10-08 18:00:00 24.7 5 Oeste 22 Noroeste 0 -- -- 31
2019-10-08 17:00:00 26.2 5 Oeste 20 Oeste 0 -- -- 31
2019-10-08 16:00:00 26.2 5 Noroeste 22 Noroeste 0 -- -- 33
2019-10-08 15:00:00 26.2 4 Oeste 17 Noroeste 0 -- -- 35
2019-10-08 14:00:00 24 5 Noroeste 15 Noroeste 0 -- -- 38
2019-10-08 13:00:00 22.9 3 Oeste 12 Noroeste 0 -- -- 40
2019-10-08 12:00:00 21 0 Calma 6 Sudoeste 0 -- -- 44
2019-10-08 11:00:00 18.7 3 Sudeste 8 Sudeste 0 -- -- 52
2019-10-08 10:00:00 13.3 0 Calma 8 Nordeste 0 -- -- 70
2019-10-08 09:00:00 10.3 3 Este 11 Nordeste 0 -- -- 81
2019-10-08 08:00:00 10.5 3 Este 12 Norte 0 -- -- 79
2019-10-08 07:00:00 10.1 4 Nordeste 15 Nordeste 0 -- -- 79
2019-10-08 06:00:00 10.5 3 Nordeste 14 Nordeste 0 -- -- 76
2019-10-08 05:00:00 11.6 4 Nordeste 16 Este 0 -- -- 72
2019-10-08 04:00:00 11.2 3 Nordeste 12 Nordeste 0 -- -- 71
2019-10-08 03:00:00 11.4 0 Calma 9 Sur 0 -- -- 67
2019-10-08 02:00:00 12.2 6 Sur 20 Nordeste 0 -- -- 62
2019-10-08 01:00:00 13 7 Nordeste 15 Nordeste 0 -- -- 61
2019-10-08 00:00:00 13.8 0 Calma 10 Sudeste 0 -- -- 53
2019-10-07 23:00:00 13.9 2 Norte 11 Noroeste 0 -- -- 51
2019-10-07 22:00:00 14.7 4 Oeste 14 Noroeste 0 -- -- 46
2019-10-07 21:00:00 15.9 4 Oeste 22 Noroeste 0 -- -- 40
2019-10-07 20:00:00 17 10 Noroeste 28 Noroeste 0 -- -- 37
2019-10-07 19:00:00 19.9 10 Sudoeste 48 Nordeste 0 -- -- 33
2019-10-07 18:00:00 22.9 18 Nordeste 51 Nordeste 0 -- -- 32
2019-10-07 17:00:00 22.8 28 Nordeste 46 Norte 0 -- -- 30
2019-10-07 16:00:00 24 14 Nordeste 39 Nordeste 0 -- -- 27
2019-10-07 15:00:00 22.9 9 Noroeste 32 Noroeste 0 -- -- 23
2019-10-07 14:00:00 22.6 9 Oeste 32 Noroeste 0 -- -- 25
2019-10-07 13:00:00 20 11 Noroeste 28 Noroeste 0 -- -- 29
2019-10-07 12:00:00 16.8 0 Calma 13 Sudeste 0 -- -- 38
2019-10-07 11:00:00 13.9 5 Sur 16 Sudoeste 0 -- -- 47
2019-10-07 10:00:00 11.1 4 Sudeste 12 Oeste 0 -- -- 55
2019-10-07 09:00:00 8.6 3 Sur 12 Sudoeste 0 -- -- 62
2019-10-07 08:00:00 8.3 0 Calma 15 Oeste 0 -- -- 62
2019-10-07 07:00:00 8.1 0 Calma 18 Noroeste 0 -- -- 62
2019-10-07 06:00:00 8.1 3 Sudeste 13 Noroeste 0 -- -- 62
2019-10-07 05:00:00 8.6 5 Oeste 16 Sudoeste 0 -- -- 57
2019-10-07 04:00:00 8.6 2 Sudeste 19 Oeste 0 -- -- 53
2019-10-07 03:00:00 9.1 9 Oeste 35 Sudoeste 0 -- -- 51
2019-10-07 02:00:00 9.7 17 Noroeste 34 Noroeste 0 -- -- 47
2019-10-07 01:00:00 10.7 11 Oeste 30 Oeste 0 -- -- 49
2019-10-07 00:00:00 11.5 13 Oeste 26 Noroeste 0 -- -- 51
2019-10-06 23:00:00 12.6 9 Noroeste 34 Norte 0 -- -- 47
2019-10-06 22:00:00 11.7 10 Oeste 29 Noroeste 0 -- -- 61
2019-10-06 21:00:00 12.1 7 Noroeste 30 Noroeste 0 -- -- 59
2019-10-06 20:00:00 14.2 9 Noroeste 24 Oeste 0 -- -- 51
2019-10-06 19:00:00 16.4 9 Oeste 34 Noroeste 0 -- -- 44
2019-10-06 18:00:00 19 11 Noroeste 38 Noroeste 0 -- -- 38
2019-10-06 17:00:00 20.1 14 Noroeste 38 Noroeste 0 -- -- 37
2019-10-06 16:00:00 21.4 12 Oeste 32 Oeste 0 -- -- 40
2019-10-06 15:00:00 19.1 10 Sudoeste 28 Sudoeste 0 -- -- 44
2019-10-06 14:00:00 18.1 8 Noroeste 21 Noroeste 0 -- -- 44
2019-10-06 13:00:00 15.8 4 Oeste 15 Noroeste 0 -- -- 51
2019-10-06 12:00:00 14.1 6 Noroeste 17 Norte 0 -- -- 58
2019-10-06 11:00:00 12.2 0 Calma 8 Noroeste 0 -- -- 70
2019-10-06 10:00:00 9 0 Calma 6 Noroeste 0 -- -- 82
2019-10-06 09:00:00 6.1 4 Nordeste 16 Nordeste 0 -- -- 85
2019-10-06 08:00:00 5.6 0 Calma 7 Norte 0 -- -- 85
2019-10-06 07:00:00 5.7 0 Calma 12 Nordeste 0 -- -- 83
2019-10-06 06:00:00 6.3 4 Nordeste 16 Nordeste 0 -- -- 81
2019-10-06 05:00:00 6.6 7 Nordeste 18 Nordeste 0 -- -- 78
2019-10-06 04:00:00 7.5 5 Nordeste 10 Nordeste 0 -- -- 76
2019-10-06 03:00:00 8.6 6 Nordeste 18 Nordeste 0 -- -- 72
2019-10-06 02:00:00 8.8 4 Nordeste 15 Nordeste 0 -- -- 70
2019-10-06 01:00:00 9.8 3 Nordeste 15 Norte 0 -- -- 65
2019-10-06 00:00:00 11 0 Calma 6 Nordeste 0 -- -- 58
2019-10-05 23:00:00 12.6 4 Nordeste 9 Norte 0 -- -- 54
2019-10-05 22:00:00 13.8 5 Norte 12 Nordeste 0 -- -- 49
2019-10-05 21:00:00 16.3 3 Nordeste 12 Noroeste 0 -- -- 42
2019-10-05 20:00:00 18.8 7 Noroeste 21 Oeste 0 -- -- 36
2019-10-05 19:00:00 21.7 9 Oeste 27 Noroeste 0 -- -- 32
2019-10-05 18:00:00 23.1 6 Noroeste 22 Noroeste 0 -- -- 31
2019-10-05 17:00:00 24 5 Oeste 17 Noroeste 0 -- -- 29
2019-10-05 16:00:00 24.4 5 Oeste 22 Noroeste 0 -- -- 29
2019-10-05 15:00:00 23.4 4 Noroeste 17 Noroeste 0 -- -- 30
2019-10-05 14:00:00 20.8 6 Noroeste 15 Noroeste 0 -- -- 34
2019-10-05 13:00:00 20.5 2 Oeste 10 Oeste 0 -- -- 37
2019-10-05 12:00:00 16.7 0 Calma 8 Oeste 0 -- -- 46
2019-10-05 11:00:00 13 0 Calma 7 Nordeste 0 -- -- 62
2019-10-05 10:00:00 8.3 2 Nordeste 9 Nordeste 0 -- -- 83
2019-10-05 09:00:00 5.9 0 Calma 8 Nordeste 0 -- -- 88
2019-10-05 08:00:00 5.8 0 Calma 8 Nordeste 0 -- -- 87
2019-10-05 07:00:00 6.5 3 Nordeste 19 Nordeste 0 -- -- 87
2019-10-05 06:00:00 6.9 0 Calma 14 Nordeste 0 -- -- 87
2019-10-05 05:00:00 7.3 3 Nordeste 15 Nordeste 0 -- -- 85
2019-10-05 04:00:00 8 5 Nordeste 17 Nordeste 0 -- -- 83
2019-10-05 03:00:00 8.9 4 Nordeste 8 Nordeste 0 -- -- 81
2019-10-05 02:00:00 10.3 0 Calma 5 Norte 0 -- -- 78
2019-10-05 01:00:00 11 2 Norte 8 Noroeste 0 -- -- 77
2019-10-05 00:00:00 11.9 4 Sudoeste 12 Oeste 0 -- -- 72
2019-10-04 23:00:00 13.1 7 Oeste 17 Noroeste 0 -- -- 68
2019-10-04 22:00:00 14.3 5 Oeste 25 Noroeste 0 -- -- 64
2019-10-04 21:00:00 15.7 9 Noroeste 21 Noroeste 0 -- -- 55
2019-10-04 20:00:00 17.9 8 Noroeste 20 Oeste 0 -- -- 44
2019-10-04 19:00:00 20.2 8 Norte 27 Noroeste 0 -- -- 40
2019-10-04 18:00:00 21.6 10 Noroeste 33 Oeste 0 -- -- 38
2019-10-04 17:00:00 22.8 8 Noroeste 35 Noroeste 0 -- -- 37
2019-10-04 16:00:00 24 13 Noroeste 36 Noroeste 0 -- -- 36
2019-10-04 15:00:00 24 12 Noroeste 34 Noroeste 0 -- -- 38
2019-10-04 14:00:00 23.8 9 Sudoeste 30 Sudoeste 0 -- -- 40
2019-10-04 13:00:00 21.9 6 Sudoeste 19 Oeste 0 -- -- 42
2019-10-04 12:00:00 19.2 3 Oeste 15 Oeste 0 -- -- 46
2019-10-04 11:00:00 16.7 3 Sur 11 Sur 0 -- -- 43
2019-10-04 10:00:00 9.7 0 Calma 8 Sur 0 -- -- 55
2019-10-04 09:00:00 5.7 0 Calma 12 Sudeste 0 -- -- 62
2019-10-04 08:00:00 5.4 2 Nordeste 8 Sudeste 0 -- -- 61
2019-10-04 07:00:00 5.5 2 Nordeste 9 Sur 0 -- -- 59
2019-10-04 06:00:00 6 0 Calma 17 Nordeste 0 -- -- 57
2019-10-04 05:00:00 6.1 0 Calma 16 Nordeste 0 -- -- 58
2019-10-04 04:00:00 6.8 4 Nordeste 12 Nordeste 0 -- -- 57
2019-10-04 03:00:00 6.6 4 Nordeste 12 Sur 0 -- -- 57
2019-10-04 02:00:00 7.2 4 Nordeste 10 Nordeste 0 -- -- 53
2019-10-04 01:00:00 9 4 Sur 13 Nordeste 0 -- -- 51
2019-10-04 00:00:00 9 2 Norte 7 Norte 0 -- -- 49
2019-10-03 23:00:00 11.9 2 Oeste 9 Oeste 0 -- -- 47
2019-10-03 22:00:00 12.7 4 Oeste 15 Oeste 0 -- -- 44
2019-10-03 21:00:00 14.1 6 Oeste 19 Noroeste 0 -- -- 39
2019-10-03 20:00:00 16 9 Noroeste 22 Noroeste 0 -- -- 28
2019-10-03 19:00:00 18.9 10 Noroeste 32 Noroeste 0 -- -- 22
2019-10-03 18:00:00 21.1 10 Noroeste 36 Noroeste 0 -- -- 23
2019-10-03 17:00:00 21.9 14 Noroeste 39 Noroeste 0 -- -- 26
2019-10-03 16:00:00 23.3 8 Oeste 22 Sudoeste 0 -- -- 27
2019-10-03 15:00:00 21.1 4 Noroeste 21 Noroeste 0 -- -- 32
2019-10-03 14:00:00 19.7 5 Oeste 20 Noroeste 0 -- -- 34
2019-10-03 13:00:00 17.6 4 Sudoeste 14 Sudoeste 0 -- -- 38
2019-10-03 12:00:00 14.3 2 Oeste 8 Noroeste 0 -- -- 51
2019-10-03 11:00:00 10.7 0 Calma 6 Sudeste 0 -- -- 63
2019-10-03 10:00:00 6.6 3 Sudeste 13 Nordeste 0 -- -- 78
2019-10-03 09:00:00 5.3 3 Nordeste 13 Nordeste 0 -- -- 82
2019-10-03 08:00:00 4.7 0 Calma 16 Nordeste 0 -- -- 82
2019-10-03 07:00:00 5.3 5 Nordeste 19 Nordeste 0 -- -- 81
2019-10-03 06:00:00 5.6 2 Sudeste 11 Sudeste 0 -- -- 83
2019-10-03 05:00:00 5.6 3 Nordeste 15 Nordeste 0 -- -- 81
2019-10-03 04:00:00 6.2 5 Nordeste 11 Nordeste 0 -- -- 79
2019-10-03 03:00:00 7.6 3 Sudeste 11 Sur 0 -- -- 76
2019-10-03 02:00:00 8 0 Calma 9 Este 0 -- -- 75
2019-10-03 01:00:00 9.1 3 Oeste 14 Noroeste 0 -- -- 72
2019-10-03 00:00:00 9.6 5 Oeste 19 Sudoeste 0 -- -- 72
2019-10-02 23:00:00 10.4 7 Oeste 24 Oeste 0 -- -- 70
2019-10-02 22:00:00 10.7 11 Noroeste 26 Oeste 0 -- -- 70
2019-10-02 21:00:00 11.4 9 Noroeste 24 Noroeste 0 -- -- 63
2019-10-02 20:00:00 12.4 10 Noroeste 27 Noroeste 0 -- -- 58
2019-10-02 19:00:00 14.8 11 Noroeste 39 Oeste 0 -- -- 44
2019-10-02 18:00:00 17.5 15 Noroeste 40 Noroeste 0 -- -- 38
2019-10-02 17:00:00 18.2 9 Norte 39 Noroeste 0 -- -- 37
2019-10-02 16:00:00 19.1 18 Noroeste 37 Noroeste 0 -- -- 35
2019-10-02 15:00:00 17.1 9 Norte 28 Nordeste 0 -- -- 40
2019-10-02 14:00:00 16.9 12 Norte 33 Noroeste 0 -- -- 40
2019-10-02 13:00:00 17.8 5 Noroeste 31 Noroeste 0 -- -- 37
2019-10-02 12:00:00 14.7 12 Noroeste 31 Oeste 0 -- -- 61
2019-10-02 11:00:00 13.1 7 Oeste 21 Noroeste 0 -- -- 72
2019-10-02 10:00:00 11.1 6 Oeste 26 Noroeste 0 -- -- 85
2019-10-02 09:00:00 10.7 11 Noroeste 31 Noroeste 0 -- -- 83
2019-10-02 08:00:00 10.5 10 Noroeste 32 Noroeste 0 -- -- 73
2019-10-02 07:00:00 10.9 5 Oeste 24 Oeste 0 -- -- 68
2019-10-02 06:00:00 11.9 9 Noroeste 35 Noroeste 0 -- -- 61
2019-10-02 05:00:00 12.7 19 Norte 47 Norte 0 -- -- 57
2019-10-02 04:00:00 11.9 14 Noroeste 26 Noroeste 0 -- -- 63
2019-10-02 03:00:00 11.9 10 Norte 31 Noroeste 0 -- -- 70
2019-10-02 02:00:00 11.8 10 Noroeste 21 Noroeste 0 -- -- 70
2019-10-02 01:00:00 12.3 3 Sudoeste 17 Noroeste 0 -- -- 68
2019-10-02 00:00:00 12.7 5 Noroeste 23 Noroeste 0 -- -- 63
2019-10-01 23:00:00 13.1 10 Noroeste 20 Oeste 0 -- -- 61
2019-10-01 22:00:00 14 10 Noroeste 24 Noroeste 0 -- -- 58
2019-10-01 21:00:00 16.5 4 Noroeste 27 Noroeste 0 -- -- 46
2019-10-01 20:00:00 18.4 12 Norte 36 Noroeste 0 -- -- 40
2019-10-01 19:00:00 20.4 21 Norte 38 Norte 0 -- -- 37
2019-10-01 18:00:00 22.5 14 Norte 32 Noroeste 0 -- -- 34
2019-10-01 17:00:00 23.1 15 Noroeste 36 Noroeste 0 -- -- 35
2019-10-01 16:00:00 23.5 13 Noroeste 33 Oeste 0 -- -- 36
2019-10-01 15:00:00 25.9 8 Oeste 26 Noroeste 0 -- -- 34
2019-10-01 14:00:00 25.8 9 Noroeste 26 Noroeste 0 -- -- 34
2019-10-01 13:00:00 24.5 7 Noroeste 27 Noroeste 0 -- -- 34
2019-10-01 12:00:00 24.3 2 Sudoeste 8 Sudoeste 0 -- -- 37
2019-10-01 11:00:00 20.4 0 Calma 6 Sudeste 0 -- -- 44
2019-10-01 10:00:00 16.1 0 Calma 12 Nordeste 0 -- -- 54
2019-10-01 09:00:00 12.7 4 Nordeste 21 Nordeste 0 -- -- 58
2019-10-01 08:00:00 12.6 7 Nordeste 26 Nordeste 0 -- -- 57
2019-10-01 07:00:00 12.2 5 Nordeste 23 Nordeste 0 -- -- 58
2019-10-01 06:00:00 12.8 9 Nordeste 22 Nordeste 0 -- -- 57
2019-10-01 05:00:00 13.5 9 Nordeste 22 Nordeste 0 -- -- 55
2019-10-01 04:00:00 13.8 8 Nordeste 22 Nordeste 0 -- -- 55
2019-10-01 03:00:00 13.8 8 Nordeste 20 Nordeste 0 -- -- 55
2019-10-01 02:00:00 14.4 9 Nordeste 22 Este 0 -- -- 53
2019-10-01 01:00:00 14.5 8 Nordeste 22 Nordeste 0 -- -- 53
2019-10-01 00:00:00 15.4 6 Nordeste 24 Nordeste 0 -- -- 49
2019-09-30 23:00:00 16.2 8 Nordeste 19 Nordeste 0 -- -- 47
2019-09-30 22:00:00 17.2 6 Nordeste 28 Nordeste 0 -- -- 44
2019-09-30 21:00:00 18.6 12 Nordeste 28 Nordeste 0 -- -- 40
2019-09-30 20:00:00 21.9 0 Calma 11 Sudoeste 0 -- -- 32
2019-09-30 19:00:00 24.5 5 Sudoeste 21 Noroeste 0 -- -- 30
2019-09-30 18:00:00 26.1 3 Sudoeste 17 Sudoeste 0 -- -- 29
2019-09-30 17:00:00 26.9 4 Noroeste 16 Sudoeste 0 -- -- 28
2019-09-30 16:00:00 28.6 0 Calma 15 Norte 0 -- -- 27
2019-09-30 15:00:00 26.4 6 Norte 17 Noroeste 0 -- -- 27
2019-09-30 14:00:00 27.4 4 Sudoeste 16 Noroeste 0 -- -- 29
2019-09-30 13:00:00 26.3 2 Noroeste 11 Noroeste 0 -- -- 31
2019-09-30 12:00:00 24.6 2 Sur 9 Sur 0 -- -- 33
2019-09-30 11:00:00 20.3 4 Sudeste 9 Sudeste 0 -- -- 42
2019-09-30 10:00:00 14.6 2 Nordeste 9 Nordeste 0 -- -- 57
2019-09-30 09:00:00 9.9 3 Nordeste 15 Nordeste 0 -- -- 67
2019-09-30 08:00:00 11.1 8 Nordeste 21 Nordeste 0 -- -- 62
2019-09-30 07:00:00 10.3 0 Calma 18 Nordeste 0 -- -- 64
2019-09-30 06:00:00 10.3 6 Nordeste 20 Nordeste 0 -- -- 63
2019-09-30 05:00:00 10.6 4 Nordeste 11 Este 0 -- -- 62
2019-09-30 04:00:00 10.9 3 Nordeste 14 Nordeste 0 -- -- 61
2019-09-30 03:00:00 11.6 6 Nordeste 15 Nordeste 0 -- -- 57
2019-09-30 02:00:00 12.6 8 Nordeste 21 Nordeste 0 -- -- 55
2019-09-30 01:00:00 13.7 5 Nordeste 21 Nordeste 0 -- -- 51
2019-09-30 00:00:00 13.8 9 Nordeste 26 Norte 0 -- -- 52
2019-09-29 23:00:00 15.1 5 Nordeste 28 Nordeste 0 -- -- 49
2019-09-29 22:00:00 16.2 17 Nordeste 26 Nordeste 0 -- -- 43
2019-09-29 21:00:00 18.2 10 Nordeste 24 Nordeste 0 -- -- 37
2019-09-29 20:00:00 21.2 4 Nordeste 13 Noroeste 0 -- -- 31
2019-09-29 19:00:00 24 5 Oeste 23 Noroeste 0 -- -- 25
2019-09-29 18:00:00 25.4 6 Noroeste 24 Noroeste 0 -- -- 23
2019-09-29 17:00:00 26.5 9 Noroeste 25 Noroeste 0 -- -- 22
2019-09-29 16:00:00 27.7 9 Noroeste 24 Noroeste 0 -- -- 23
2019-09-29 15:00:00 27 9 Noroeste 23 Noroeste 0 -- -- 24
2019-09-29 14:00:00 26.3 6 Noroeste 17 Noroeste 0 -- -- 26
2019-09-29 13:00:00 26.1 2 Oeste 8 Sudoeste 0 -- -- 29
2019-09-29 12:00:00 24.4 3 Sur 9 Sur 0 -- -- 36
2019-09-29 11:00:00 20.3 3 Sudeste 14 Sudeste 0 -- -- 43
2019-09-29 10:00:00 16 3 Este 12 Norte 0 -- -- 52
2019-09-29 09:00:00 11.6 3 Este 21 Nordeste 0 -- -- 61
2019-09-29 08:00:00 11.4 6 Nordeste 21 Nordeste 0 -- -- 61
2019-09-29 07:00:00 11.4 6 Nordeste 29 Nordeste 0 -- -- 59
2019-09-29 06:00:00 11.7 7 Nordeste 17 Nordeste 0 -- -- 57
2019-09-29 05:00:00 11.5 5 Nordeste 19 Nordeste 0 -- -- 59
2019-09-29 04:00:00 11.2 9 Nordeste 25 Norte 0 -- -- 59
2019-09-29 03:00:00 12.2 12 Nordeste 25 Nordeste 0 -- -- 55
2019-09-29 02:00:00 12.8 12 Nordeste 23 Nordeste 0 -- -- 55
2019-09-29 01:00:00 12.7 5 Nordeste 19 Nordeste 0 -- -- 56
2019-09-29 00:00:00 13.6 4 Nordeste 22 Nordeste 0 -- -- 55
2019-09-28 23:00:00 15 11 Nordeste 20 Nordeste 0 -- -- 52
2019-09-28 22:00:00 15.6 5 Este 23 Nordeste 0 -- -- 49
2019-09-28 21:00:00 16.7 9 Nordeste 21 Nordeste 0 -- -- 46
2019-09-28 20:00:00 19.5 3 Nordeste 9 Oeste 0 -- -- 38
2019-09-28 19:00:00 22.2 3 Oeste 12 Noroeste 0 -- -- 32
2019-09-28 18:00:00 23.8 4 Noroeste 16 Sudoeste 0 -- -- 30
2019-09-28 17:00:00 25.1 5 Oeste 19 Sudoeste 0 -- -- 28
2019-09-28 16:00:00 26.3 4 Oeste 21 Noroeste 0 -- -- 28
2019-09-28 15:00:00 26.2 4 Noroeste 17 Sudoeste 0 -- -- 27
2019-09-28 14:00:00 25 3 Sudeste 13 Este 0 -- -- 30
2019-09-28 13:00:00 23.5 0 Calma 10 Oeste 0 -- -- 33
2019-09-28 12:00:00 22.1 2 Sudoeste 6 Noroeste 0 -- -- 35
2019-09-28 11:00:00 18 0 Calma 3 Norte 0 -- -- 46
2019-09-28 10:00:00 12.7 2 Nordeste 8 Nordeste 0 -- -- 61
2019-09-28 09:00:00 8.8 4 Nordeste 14 Este 0 -- -- 73
2019-09-28 08:00:00 7.9 4 Nordeste 10 Este 0 -- -- 73
2019-09-28 07:00:00 8.6 6 Nordeste 18 Nordeste 0 -- -- 70
2019-09-28 06:00:00 8.7 9 Nordeste 17 Nordeste 0 -- -- 68
2019-09-28 05:00:00 9.2 2 Nordeste 13 Nordeste 0 -- -- 65
2019-09-28 04:00:00 9.6 8 Nordeste 18 Norte 0 -- -- 65
2019-09-28 03:00:00 9.9 7 Nordeste 15 Nordeste 0 -- -- 63
2019-09-28 02:00:00 10.5 0 Calma 11 Nordeste 0 -- -- 58
2019-09-28 01:00:00 11.2 6 Nordeste 20 Nordeste 0 -- -- 55
2019-09-28 00:00:00 11.8 9 Nordeste 22 Nordeste 0 -- -- 51
2019-09-27 23:00:00 12.9 12 Nordeste 27 Nordeste 0 -- -- 47
2019-09-27 22:00:00 14 15 Nordeste 27 Nordeste 0 -- -- 43
2019-09-27 21:00:00 16.5 11 Nordeste 26 Nordeste 0 -- -- 37
2019-09-27 20:00:00 19 10 Nordeste 21 Nordeste 0 -- -- 26
2019-09-27 19:00:00 21.9 10 Norte 21 Norte 0 -- -- 24
2019-09-27 18:00:00 24 5 Oeste 22 Noroeste 0 -- -- 23
2019-09-27 17:00:00 25.2 6 Noroeste 23 Noroeste 0 -- -- 23
2019-09-27 16:00:00 25.1 8 Noroeste 25 Noroeste 0 -- -- 28
2019-09-27 15:00:00 25.4 8 Noroeste 23 Noroeste 0 -- -- 26
2019-09-27 14:00:00 25.5 7 Oeste 20 Noroeste 0 -- -- 26
2019-09-27 13:00:00 24 4 Noroeste 16 Norte 0 -- -- 33
2019-09-27 12:00:00 22.8 0 Calma 6 Noroeste 0 -- -- 38
2019-09-27 11:00:00 19.4 0 Calma 14 Nordeste 0 -- -- 49
2019-09-27 10:00:00 14.4 8 Norte 17 Nordeste 0 -- -- 63
2019-09-27 09:00:00 12.1 6 Nordeste 20 Nordeste 0 -- -- 72
2019-09-27 08:00:00 11.2 4 Nordeste 15 Nordeste 0 -- -- 73
2019-09-27 07:00:00 11.2 5 Nordeste 16 Nordeste 0 -- -- 73
2019-09-27 06:00:00 11.1 7 Nordeste 18 Nordeste 0 -- -- 74
2019-09-27 05:00:00 11.4 5 Nordeste 23 Nordeste 0 -- -- 70
2019-09-27 04:00:00 13 9 Nordeste 24 Nordeste 0 -- -- 64
2019-09-27 03:00:00 13.2 6 Nordeste 21 Nordeste 0 -- -- 65
2019-09-27 02:00:00 13.5 6 Nordeste 20 Nordeste 0 -- -- 64
2019-09-27 01:00:00 13.7 10 Nordeste 22 Nordeste 0 -- -- 64
2019-09-27 00:00:00 14.1 5 Nordeste 22 Nordeste 0 -- -- 64
2019-09-26 23:00:00 14.6 14 Nordeste 26 Nordeste 0 -- -- 61
2019-09-26 22:00:00 15.9 13 Nordeste 24 Nordeste 0 -- -- 55
2019-09-26 21:00:00 17.8 11 Nordeste 18 Nordeste 0 -- -- 47
2019-09-26 20:00:00 20.7 0 Calma 10 Noroeste 0 -- -- 38
2019-09-26 19:00:00 23 4 Noroeste 15 Sudoeste 0 -- -- 33
2019-09-26 18:00:00 24.1 6 Sudoeste 13 Sudoeste 0 -- -- 32
2019-09-26 17:00:00 25.7 5 Oeste 19 Norte 0 -- -- 31
2019-09-26 16:00:00 25.3 3 Noroeste 17 Sudoeste 0 -- -- 30
2019-09-26 15:00:00 24.5 5 Noroeste 15 Noroeste 0 -- -- 31
2019-09-26 14:00:00 24.5 4 Oeste 15 Noroeste 0 -- -- 32
2019-09-26 13:00:00 22.5 4 Noroeste 14 Norte 0 -- -- 35
2019-09-26 12:00:00 20.3 0 Calma 13 Sudeste 0 -- -- 42
2019-09-26 11:00:00 17.6 4 Sudeste 12 Este 0 -- -- 49
2019-09-26 10:00:00 12.8 2 Nordeste 12 Nordeste 0 -- -- 72
2019-09-26 09:00:00 9.8 7 Nordeste 14 Nordeste 0 -- -- 83
2019-09-26 08:00:00 9.3 0 Calma 15 Nordeste 0 -- -- 83
2019-09-26 07:00:00 9.3 2 Nordeste 11 Nordeste 0 -- -- 82
2019-09-26 06:00:00 9.8 0 Calma 16 Nordeste 0 -- -- 79
2019-09-26 05:00:00 10.6 4 Nordeste 14 Nordeste 0 -- -- 77
2019-09-26 04:00:00 10.9 0 Calma 7 Sudeste 0 -- -- 70
2019-09-26 03:00:00 11.9 0 Calma 8 Sudeste 0 -- -- 67
2019-09-26 02:00:00 12.5 0 Calma 15 Nordeste 0 -- -- 67
2019-09-26 01:00:00 12.1 5 Nordeste 14 Nordeste 0 -- -- 68
2019-09-26 00:00:00 12.2 0 Calma 8 Nordeste 0 -- -- 63
2019-09-25 23:00:00 13.3 0 Calma 10 Oeste 0 -- -- 57
2019-09-25 22:00:00 13.3 5 Noroeste 13 Noroeste 0 -- -- 57
2019-09-25 21:00:00 13.7 5 Noroeste 17 Noroeste 0 -- -- 55
2019-09-25 20:00:00 14.9 5 Oeste 20 Oeste 0 -- -- 49
2019-09-25 19:00:00 16.3 8 Oeste 26 Noroeste 0 -- -- 44
2019-09-25 18:00:00 18.2 10 Noroeste 32 Noroeste 0 -- -- 40
2019-09-25 17:00:00 19.4 10 Noroeste 38 Noroeste 0 -- -- 37
2019-09-25 16:00:00 20.3 10 Oeste 37 Oeste 0 -- -- 36
2019-09-25 15:00:00 20.2 12 Noroeste 31 Noroeste 0 -- -- 37
2019-09-25 14:00:00 19.7 10 Noroeste 30 Noroeste 0 -- -- 37
2019-09-25 13:00:00 19 7 Noroeste 36 Noroeste 0 -- -- 38
2019-09-25 12:00:00 17.5 9 Noroeste 30 Noroeste 0 -- -- 44
2019-09-25 11:00:00 16.1 4 Noroeste 15 Noroeste 0 -- -- 55
2019-09-25 10:00:00 13.1 2 Oeste 10 Noroeste 0 -- -- 70
2019-09-25 09:00:00 10.1 5 Oeste 10 Noroeste 0 -- -- 85
2019-09-25 08:00:00 9.8 0 Calma 6 Noroeste 0 -- -- 83
2019-09-25 07:00:00 10.8 3 Oeste 11 Noroeste 0 -- -- 83
2019-09-25 06:00:00 11.3 3 Oeste 21 Noroeste 0 -- -- 83
2019-09-25 05:00:00 11.6 8 Noroeste 23 Noroeste 0 -- -- 83
2019-09-25 04:00:00 12.2 9 Noroeste 19 Noroeste 0 -- -- 82
2019-09-25 03:00:00 13.3 5 Oeste 14 Noroeste 0 -- -- 79
2019-09-25 02:00:00 13.4 0 Calma 6 Oeste 0 -- -- 72
2019-09-25 01:00:00 14.9 4 Sur 15 Noroeste 0 -- -- 67
2019-09-25 00:00:00 14.5 5 Nordeste 19 Nordeste 0 -- -- 65
2019-09-24 23:00:00 14.8 8 Nordeste 18 Nordeste 0 -- -- 62
2019-09-24 22:00:00 15.7 9 Nordeste 19 Nordeste 0 -- -- 58
2019-09-24 21:00:00 17 5 Nordeste 14 Norte 0 -- -- 51
2019-09-24 20:00:00 19.5 5 Noroeste 27 Noroeste 0 -- -- 42
2019-09-24 19:00:00 21.9 8 Noroeste 25 Noroeste 0 -- -- 37
2019-09-24 18:00:00 22.8 8 Noroeste 27 Noroeste 0 -- -- 34
2019-09-24 17:00:00 22.5 9 Noroeste 23 Noroeste 0 -- -- 35
2019-09-24 16:00:00 22.5 8 Norte 23 Norte 0 -- -- 34
2019-09-24 15:00:00 24.8 4 Noroeste 27 Norte 0 -- -- 32
2019-09-24 14:00:00 22.5 10 Norte 27 Noroeste 0 -- -- 32
2019-09-24 13:00:00 22.1 6 Noroeste 24 Noroeste 0 -- -- 32
2019-09-24 12:00:00 22.2 3 Oeste 11 Oeste 0 -- -- 33
2019-09-24 11:00:00 19.2 4 Sur 10 Sudeste 0 -- -- 40
2019-09-24 10:00:00 14.8 2 Nordeste 17 Nordeste 0 -- -- 53
2019-09-24 09:00:00 11.2 3 Nordeste 19 Nordeste 0 -- -- 65
2019-09-24 08:00:00 10.8 8 Nordeste 18 Nordeste 0 -- -- 65
2019-09-24 07:00:00 11.2 3 Nordeste 21 Nordeste 0 -- -- 62
2019-09-24 06:00:00 11.7 8 Nordeste 27 Nordeste 0 -- -- 62
2019-09-24 05:00:00 11.5 9 Nordeste 19 Nordeste 0 -- -- 59
2019-09-24 04:00:00 12.5 5 Nordeste 21 Nordeste 0 -- -- 55
2019-09-24 03:00:00 11.6 8 Nordeste 21 Norte 0 -- -- 57
2019-09-24 02:00:00 12.1 4 Nordeste 16 Nordeste 0 -- -- 53
2019-09-24 01:00:00 12.4 7 Nordeste 17 Nordeste 0 -- -- 54
2019-09-24 00:00:00 12.4 5 Nordeste 19 Norte 0 -- -- 52
2019-09-23 23:00:00 12.7 8 Nordeste 21 Nordeste 0 -- -- 52
2019-09-23 22:00:00 13.5 6 Nordeste 18 Nordeste 0 -- -- 48
2019-09-23 21:00:00 14.6 10 Nordeste 22 Nordeste 0 -- -- 42
2019-09-23 20:00:00 16.9 0 Calma 12 Oeste 0 -- -- 31
2019-09-23 19:00:00 18.4 4 Noroeste 17 Noroeste 0 -- -- 30
2019-09-23 18:00:00 19.6 7 Noroeste 30 Sudoeste 0 -- -- 31
2019-09-23 17:00:00 20.7 5 Noroeste 20 Noroeste 0 -- -- 31
2019-09-23 16:00:00 20.5 8 Noroeste 20 Noroeste 0 -- -- 31
2019-09-23 15:00:00 19.8 6 Noroeste 17 Noroeste 0 -- -- 29
2019-09-23 14:00:00 19.6 4 Noroeste 20 Sudoeste 0 -- -- 31
2019-09-23 13:00:00 19.9 4 Oeste 15 Oeste 0 -- -- 34
2019-09-23 12:00:00 17.6 3 Sur 9 Oeste 0 -- -- 40
2019-09-23 11:00:00 14.1 3 Sudeste 9 Este 0 -- -- 54
2019-09-23 10:00:00 9.3 3 Nordeste 15 Nordeste 0 -- -- 73
2019-09-23 09:00:00 6.7 6 Nordeste 15 Nordeste 0 -- -- 85
2019-09-23 08:00:00 6.2 2 Nordeste 17 Nordeste 0 -- -- 83
2019-09-23 07:00:00 6.9 8 Nordeste 20 Nordeste 0 -- -- 83
2019-09-23 06:00:00 6.5 8 Nordeste 17 Nordeste 0 -- -- 85
2019-09-23 05:00:00 6.7 5 Nordeste 17 Nordeste 0 -- -- 85
2019-09-23 04:00:00 6.8 4 Nordeste 10 Norte 0 -- -- 85
2019-09-23 03:00:00 7.2 0 Calma 6 Nordeste 0 -- -- 83
2019-09-23 02:00:00 7.9 0 Calma 8 Nordeste 0 -- -- 81
2019-09-23 01:00:00 8.2 5 Nordeste 17 Nordeste 0 -- -- 79
2019-09-23 00:00:00 9.1 5 Nordeste 13 Norte 0 -- -- 79
2019-09-22 23:00:00 9.9 5 Norte 10 Nordeste 0 -- -- 77
2019-09-22 22:00:00 11.5 4 Nordeste 13 Nordeste 0 -- -- 70
2019-09-22 21:00:00 13 5 Nordeste 13 Nordeste 0 -- -- 57
2019-09-22 20:00:00 15.1 5 Noroeste 24 Noroeste 0 -- -- 46
2019-09-22 19:00:00 17.1 11 Noroeste 22 Oeste 0 -- -- 43
2019-09-22 18:00:00 17.3 10 Noroeste 25 Norte 0 -- -- 46
2019-09-22 17:00:00 17.5 10 Norte 21 Noroeste 0 -- -- 48
2019-09-22 16:00:00 18.6 9 Noroeste 20 Noroeste 0 -- -- 53
2019-09-22 15:00:00 18.7 3 Norte 14 Norte 0 -- -- 65
2019-09-22 14:00:00 15 10 Norte 21 Nordeste 0 -- -- 78
2019-09-22 13:00:00 15.7 8 Nordeste 20 Sudoeste 0.5 -- -- 85
2019-09-22 12:00:00 16.8 8 Noroeste 24 Noroeste 0 -- -- 85
2019-09-22 11:00:00 16.4 0 Calma 6 Sudoeste 0 -- -- 89
2019-09-22 10:00:00 15.7 0 Calma 9 Nordeste 0.2 -- -- 89
2019-09-22 09:00:00 15.3 3 Nordeste 10 Oeste 0.5 -- -- 88
2019-09-22 08:00:00 15.1 2 Nordeste 9 Norte 0.1 -- -- 89
2019-09-22 07:00:00 15 3 Este 11 Nordeste 0.4 -- -- 88
2019-09-22 06:00:00 15.1 4 Sudeste 13 Nordeste 0.1 -- -- 89
2019-09-22 05:00:00 14.9 3 Este 10 Sudeste 6 -- -- 87
2019-09-22 04:00:00 15.4 0 Calma 13 Sudeste 1.8 -- -- 83
2019-09-22 03:00:00 15.2 4 Este 10 Sudeste 0 -- -- 87
2019-09-22 02:00:00 15.1 3 Nordeste 14 Nordeste 0 -- -- 87
2019-09-22 01:00:00 15 4 Nordeste 12 Nordeste 0 -- -- 87
2019-09-22 00:00:00 15.1 4 Este 22 Nordeste 0.9 -- -- 87
2019-09-21 23:00:00 15.6 0 Calma 30 Nordeste 1.1 -- -- 83
2019-09-21 22:00:00 18.2 5 Sudoeste 12 Sudoeste 0.1 -- -- 54
2019-09-21 21:00:00 19.3 3 Sudeste 11 Sudeste 0 -- -- 46
2019-09-21 20:00:00 20.2 0 Calma 9 Sur 0 -- -- 40
2019-09-21 19:00:00 21.6 4 Sudoeste 17 Sudoeste 0 -- -- 37
2019-09-21 18:00:00 21.8 4 Sudoeste 21 Sudoeste 0 -- -- 37
2019-09-21 17:00:00 23.2 11 Sudoeste 23 Sudoeste 0 -- -- 34
2019-09-21 16:00:00 24.2 5 Sur 21 Sudoeste 0 -- -- 36
2019-09-21 15:00:00 21.9 5 Sur 17 Sudeste 0 -- -- 40
2019-09-21 14:00:00 21.1 5 Sudeste 14 Sudeste 0 -- -- 43
2019-09-21 13:00:00 20.6 6 Sudeste 19 Sudeste 0 -- -- 42
2019-09-21 12:00:00 19.6 7 Sudeste 21 Sur 0 -- -- 49
2019-09-21 11:00:00 16.2 4 Sudeste 15 Sudeste 0 -- -- 72
2019-09-21 10:00:00 15.2 5 Sudeste 19 Sudeste 0 -- -- 76
2019-09-21 09:00:00 14.7 4 Este 17 Sudeste 0.4 -- -- 81
2019-09-21 08:00:00 14.7 7 Sudeste 19 Este 0.3 -- -- 79
2019-09-21 07:00:00 15 3 Este 16 Sur 0.1 -- -- 76
2019-09-21 06:00:00 14.2 2 Este 8 Este 0 -- -- 79
2019-09-21 05:00:00 14.5 4 Oeste 11 Sudeste 0 -- -- 75
2019-09-21 04:00:00 14.2 3 Este 12 Nordeste 0.2 -- -- 81
2019-09-21 03:00:00 14.5 4 Nordeste 13 Norte 0.1 -- -- 86
2019-09-21 02:00:00 15.4 4 Nordeste 15 Nordeste 1.8 -- -- 79
2019-09-21 01:00:00 17.6 7 Sudeste 30 Sudeste 0 -- -- 57
2019-09-21 00:00:00 18.3 9 Sudeste 22 Este 0 -- -- 56
2019-09-20 23:00:00 18.9 8 Sudeste 21 Sudeste 0 -- -- 55
2019-09-20 22:00:00 19.3 5 Sudeste 17 Sudeste 0 -- -- 55
2019-09-20 21:00:00 20.9 8 Sudeste 26 Sudeste 0 -- -- 42
2019-09-20 20:00:00 21.6 9 Sur 27 Sur 0 -- -- 40
2019-09-20 19:00:00 23.1 8 Sudeste 27 Sudeste 0 -- -- 37
2019-09-20 18:00:00 23.6 9 Sudeste 27 Sur 0 -- -- 35
2019-09-20 17:00:00 24.8 12 Sur 28 Sudeste 0 -- -- 35
2019-09-20 16:00:00 25.3 9 Sudeste 29 Sudeste 0 -- -- 34
2019-09-20 15:00:00 24.8 9 Sudeste 33 Sudoeste 0 -- -- 36
2019-09-20 14:00:00 22.5 11 Sudeste 34 Sudeste 0 -- -- 38
2019-09-20 13:00:00 21.5 10 Sur 35 Sudeste 0 -- -- 40
2019-09-20 12:00:00 21.7 10 Sudeste 31 Sudeste 0 -- -- 42
2019-09-20 11:00:00 20.6 9 Sudeste 27 Sur 0 -- -- 47
2019-09-20 10:00:00 17.8 8 Sudeste 24 Sudeste 0 -- -- 63
2019-09-20 09:00:00 14 4 Nordeste 15 Nordeste 0 -- -- 74
2019-09-20 08:00:00 13.4 6 Nordeste 18 Nordeste 0 -- -- 76
2019-09-20 07:00:00 13.3 5 Nordeste 12 Nordeste 0 -- -- 73
2019-09-20 06:00:00 15.1 3 Nordeste 13 Nordeste 0 -- -- 67
2019-09-20 05:00:00 15 3 Nordeste 19 Nordeste 0 -- -- 68
2019-09-20 04:00:00 14.5 5 Nordeste 14 Nordeste 0 -- -- 71
2019-09-20 03:00:00 14.3 5 Nordeste 13 Nordeste 0 -- -- 70
2019-09-20 02:00:00 14.7 2 Nordeste 12 Sudeste 0 -- -- 68
2019-09-20 01:00:00 15.2 4 Nordeste 19 Nordeste 0 -- -- 67
2019-09-20 00:00:00 15.3 9 Nordeste 23 Nordeste 0 -- -- 67